Time;durP1;ratioP1;P1;durP2;ratioP2;P2;SDS_P1;SDS_P2;PMS_P1;PMS_P2;Temp;Humidity;BMP_temperature;BMP_pressure;BME280_temperature;BME280_humidity;BME280_pressure;Samples;Min_cycle;Max_cycle;Signal;HPM_P1;HPM_P2
2023/07/03 00:00:57;;;;;;;;;3.00;3.00;;;;;21.58;40.61;100918.72;5039595;28;45687;-79
2023/07/03 00:03:23;;;;;;;;;2.00;2.00;;;;;22.16;40.67;101029.25;5038966;28;45316;-77
2023/07/03 00:05:49;;;;;;;;;5.00;3.33;;;;;22.25;40.75;101042.25;5021147;28;45620;-78
2023/07/03 00:08:16;;;;;;;;;4.33;3.33;;;;;21.53;40.87;100925.19;5021594;28;45539;-77
2023/07/03 00:10:42;;;;;;;;;4.00;3.00;;;;;21.85;41.40;100982.50;5042560;28;45414;-78
2023/07/03 00:13:09;;;;;;;;;5.00;4.00;;;;;22.17;41.39;101036.34;5030603;28;45496;-76
2023/07/03 00:15:34;;;;;;;;;4.00;2.33;;;;;21.80;41.21;100976.50;5016608;28;45308;-77
2023/07/03 00:18:00;;;;;;;;;4.00;4.00;;;;;21.31;41.43;100894.06;5023102;28;45481;-78
2023/07/03 00:20:30;;;;;;;;;4.67;4.67;;;;;22.16;41.45;101037.25;5038350;28;46258;-74
2023/07/03 00:23:03;;;;;;;;;3.67;3.00;;;;;22.09;41.79;101038.44;5031512;28;45484;-75
2023/07/03 00:25:29;;;;;;;;;6.00;3.33;;;;;22.06;41.96;101034.09;5019845;28;45493;-76
2023/07/03 00:27:54;;;;;;;;;6.00;4.67;;;;;21.87;42.27;101001.13;5039292;28;45612;-75
2023/07/03 00:30:28;;;;;;;;;6.00;3.00;;;;;21.98;42.62;101018.41;5039117;28;46006;-77
2023/07/03 00:32:53;;;;;;;;;6.33;4.00;;;;;21.50;42.67;100946.66;5035743;28;45317;-76
2023/07/03 00:35:20;;;;;;;;;7.67;3.00;;;;;21.27;42.89;100895.09;5006661;28;45543;-75
2023/07/03 00:37:46;;;;;;;;;5.33;3.67;;;;;21.91;43.04;101000.06;5017812;28;45506;-75
2023/07/03 00:40:12;;;;;;;;;3.33;3.33;;;;;21.91;43.14;100997.41;4999554;28;45365;-74
2023/07/03 00:42:37;;;;;;;;;4.33;4.33;;;;;21.44;43.44;100918.44;5017695;28;45680;-74
2023/07/03 00:45:07;;;;;;;;;5.67;2.67;;;;;22.01;43.37;101009.41;5017304;28;45667;-75
2023/07/03 00:47:33;;;;;;;;;3.67;3.67;;;;;21.71;43.29;100966.22;5028793;28;45454;-74
2023/07/03 00:49:59;;;;;;;;;4.00;2.33;;;;;21.98;43.63;101013.09;5036379;28;45682;-75
2023/07/03 00:52:25;;;;;;;;;4.67;3.00;;;;;21.97;43.71;101013.13;5018899;28;45570;-76
2023/07/03 00:54:52;;;;;;;;;3.00;3.00;;;;;21.76;43.62;100983.78;5037704;28;45478;-76
2023/07/03 00:57:17;;;;;;;;;5.33;3.67;;;;;21.78;43.67;100992.56;5038305;28;45462;-78
2023/07/03 00:59:43;;;;;;;;;3.33;2.33;;;;;21.45;43.56;100946.81;5038996;28;45993;-78
2023/07/03 01:02:34;;;;;;;;;5.00;4.00;;;;;21.94;43.65;101019.47;5039321;28;45371;-79
2023/07/03 01:05:07;;;;;;;;;3.67;2.67;;;;;21.81;43.95;100994.25;5036492;28;45422;-79
2023/07/03 01:07:35;;;;;;;;;2.00;2.00;;;;;21.84;43.49;100994.13;5039232;28;45429;-77
2023/07/03 01:10:05;;;;;;;;;5.33;4.33;;;;;21.37;43.71;100916.91;5039520;28;45784;-79
2023/07/03 01:12:35;;;;;;;;;6.67;4.00;;;;;21.32;43.49;100905.56;5040517;28;45261;-76
2023/07/03 01:15:05;;;;;;;;;6.00;2.67;;;;;21.38;43.54;100908.00;5022492;28;45553;-79
2023/07/03 01:17:32;;;;;;;;;6.33;5.00;;;;;21.48;43.73;100924.50;5039325;28;45364;-80
2023/07/03 01:20:01;;;;;;;;;4.67;3.67;;;;;21.49;43.57;100934.22;5021041;28;46888;-78
2023/07/03 01:22:42;;;;;;;;;3.00;3.00;;;;;21.95;43.66;101013.22;5039598;28;45309;-77
2023/07/03 01:25:11;;;;;;;;;4.00;3.00;;;;;21.94;43.60;101007.94;5039090;28;45256;-78
2023/07/03 01:27:41;;;;;;;;;1.33;1.33;;;;;21.96;43.79;101009.59;5032111;28;45541;-79
2023/07/03 01:30:10;;;;;;;;;6.67;3.00;;;;;21.96;43.85;101012.28;5026509;28;46488;-74
2023/07/03 01:32:38;;;;;;;;;6.00;4.67;;;;;21.45;43.94;100937.94;5038857;28;45495;-78
2023/07/03 01:35:05;;;;;;;;;4.33;3.67;;;;;21.30;44.19;100912.75;5039062;28;45419;-79
2023/07/03 01:37:34;;;;;;;;;4.00;3.00;;;;;21.95;44.10;101010.56;5039173;28;45264;-75
2023/07/03 01:40:02;;;;;;;;;6.33;5.33;;;;;21.43;44.52;100927.38;5036707;28;47259;-78
2023/07/03 01:42:30;;;;;;;;;5.67;5.00;;;;;21.81;44.72;100988.91;5030514;28;45466;-76
2023/07/03 01:44:56;;;;;;;;;7.00;5.00;;;;;21.91;44.66;101008.06;5019437;28;46274;-73
2023/07/03 01:47:21;;;;;;;;;3.67;3.00;;;;;21.40;44.70;100938.13;5020311;28;45171;-77
2023/07/03 01:49:48;;;;;;;;;5.67;3.67;;;;;21.35;44.82;100929.41;5020930;28;45340;-79
2023/07/03 01:52:21;;;;;;;;;4.67;2.00;;;;;21.85;45.35;101003.84;5003506;28;45523;-78
2023/07/03 01:55:02;;;;;;;;;8.33;5.67;;;;;21.86;45.00;101007.41;5020821;28;45451;-78
2023/07/03 01:57:46;;;;;;;;;7.67;4.67;;;;;21.60;45.10;100967.50;5033892;28;45422;-78
2023/07/03 02:00:18;;;;;;;;;6.00;5.67;;;;;21.08;45.17;100894.09;5039967;28;46365;-78
2023/07/03 02:02:48;;;;;;;;;8.33;4.00;;;;;21.63;45.51;100971.84;5037918;28;45521;-78
2023/07/03 02:05:21;;;;;;;;;5.33;4.00;;;;;21.72;45.63;100986.63;5041378;28;45430;-78
2023/07/03 02:07:53;;;;;;;;;7.33;4.67;;;;;21.56;45.52;100954.38;5044764;28;45276;-77
2023/07/03 02:10:18;;;;;;;;;6.00;5.00;;;;;21.60;45.84;100964.00;5045098;28;45486;-78
2023/07/03 02:12:45;;;;;;;;;4.67;4.67;;;;;21.51;45.94;100941.22;5041644;28;45552;-77
2023/07/03 02:15:11;;;;;;;;;7.00;6.00;;;;;21.59;45.94;100963.13;5042784;28;45400;-78
2023/07/03 02:17:37;;;;;;;;;6.00;4.67;;;;;21.56;45.73;100965.91;5025100;28;45458;-75
2023/07/03 02:20:18;;;;;;;;;4.67;4.67;;;;;21.41;46.16;100939.00;5049219;28;45564;-76
2023/07/03 02:22:54;;;;;;;;;6.33;5.33;;;;;21.74;46.44;101000.75;5052628;28;45286;-78
2023/07/03 02:25:20;;;;;;;;;6.33;4.33;;;;;21.75;46.27;100994.47;5045625;28;45452;-76
2023/07/03 02:27:46;;;;;;;;;6.67;5.33;;;;;21.74;46.44;100998.94;5044576;28;45421;-77
2023/07/03 02:30:12;;;;;;;;;9.33;6.00;;;;;21.18;46.53;100912.31;5042479;28;45447;-74
2023/07/03 02:32:39;;;;;;;;;6.00;5.67;;;;;20.77;46.65;100843.84;5042908;28;45281;-78
2023/07/03 02:35:06;;;;;;;;;5.67;4.33;;;;;21.65;46.96;100993.13;5045291;28;46053;-76
2023/07/03 02:37:32;;;;;;;;;7.33;5.33;;;;;21.60;46.87;100991.50;5043427;28;45541;-78
2023/07/03 02:39:58;;;;;;;;;6.33;5.00;;;;;21.28;46.70;100927.91;5041074;28;46290;-78
2023/07/03 02:42:24;;;;;;;;;6.67;5.00;;;;;21.55;46.86;100985.50;5040989;28;45315;-76
2023/07/03 02:44:51;;;;;;;;;9.00;6.00;;;;;21.39;47.27;100974.56;5041457;28;45864;-75
2023/07/03 02:47:17;;;;;;;;;7.33;4.00;;;;;20.98;47.18;100892.72;5039075;28;45395;-78
2023/07/03 02:49:42;;;;;;;;;4.00;4.00;;;;;21.04;46.90;100906.66;5039375;28;46544;-76
2023/07/03 02:52:08;;;;;;;;;6.33;6.33;;;;;21.12;47.18;100917.88;5041331;28;45282;-79
2023/07/03 02:54:34;;;;;;;;;7.00;5.00;;;;;21.06;47.29;100922.56;5026421;28;45475;-78
2023/07/03 02:56:59;;;;;;;;;6.67;5.33;;;;;21.50;47.38;100992.81;5031530;28;45370;-77
2023/07/03 02:59:25;;;;;;;;;5.67;5.33;;;;;21.03;47.53;100904.94;5042646;28;46215;-75
2023/07/03 03:01:51;;;;;;;;;6.67;4.67;;;;;20.81;47.64;100896.91;5041895;28;45293;-75
2023/07/03 03:04:17;;;;;;;;;6.33;5.33;;;;;21.32;47.53;100985.50;5041797;28;45347;-75
2023/07/03 03:06:43;;;;;;;;;8.00;5.00;;;;;20.93;47.66;100919.53;5023007;28;45360;-76
2023/07/03 03:09:09;;;;;;;;;5.67;4.33;;;;;21.15;47.93;100949.72;5021504;28;45510;-78
2023/07/03 03:11:36;;;;;;;;;7.67;4.33;;;;;21.41;47.97;101005.63;5022145;28;45455;-78
2023/07/03 03:14:02;;;;;;;;;9.00;7.67;;;;;21.41;47.92;100990.50;5022316;28;45514;-79
2023/07/03 03:16:27;;;;;;;;;6.33;5.33;;;;;21.43;47.87;100990.41;5040002;28;45756;-76
2023/07/03 03:18:53;;;;;;;;;5.00;5.00;;;;;21.42;48.10;100997.56;5022188;28;47533;-78
2023/07/03 03:21:19;;;;;;;;;4.33;4.33;;;;;21.22;48.00;100952.16;5042632;28;45336;-76
2023/07/03 03:23:46;;;;;;;;;7.00;5.67;;;;;20.89;48.05;100901.94;5025267;28;45345;-79
2023/07/03 03:26:11;;;;;;;;;7.33;5.67;;;;;21.39;48.12;100987.00;5041623;28;45343;-78
2023/07/03 03:28:37;;;;;;;;;7.33;5.67;;;;;21.03;47.90;100922.72;5024078;28;46913;-78
2023/07/03 03:31:03;;;;;;;;;5.67;4.33;;;;;21.03;47.95;100915.56;5040693;28;45335;-78
2023/07/03 03:33:29;;;;;;;;;7.67;5.33;;;;;21.41;47.79;100979.84;5021636;28;45367;-80
2023/07/03 03:35:54;;;;;;;;;6.67;5.33;;;;;20.47;47.90;100834.25;5039291;28;45435;-73
2023/07/03 03:38:20;;;;;;;;;10.67;6.00;;;;;20.78;47.84;100877.50;5039348;28;45578;-75
2023/07/03 03:40:59;;;;;;;;;8.00;8.00;;;;;20.88;47.64;100902.84;5040868;28;45441;-78
2023/07/03 03:43:25;;;;;;;;;12.33;7.00;;;;;21.39;47.97;100985.22;5040245;28;45186;-79
2023/07/03 03:45:59;;;;;;;;;12.67;7.33;;;;;21.36;48.14;100982.66;5039882;28;45404;-77
2023/07/03 03:48:25;;;;;;;;;9.33;8.67;;;;;20.79;48.55;100890.75;5038868;28;46265;-76
2023/07/03 03:50:52;;;;;;;;;11.67;7.67;;;;;20.58;48.52;100859.63;5021785;28;45328;-74
2023/07/03 03:53:18;;;;;;;;;12.33;7.33;;;;;20.97;48.52;100926.44;5040036;28;45489;-77
2023/07/03 03:55:48;;;;;;;;;7.00;5.00;;;;;21.20;49.31;100964.66;5041058;28;45240;-75
2023/07/03 03:58:15;;;;;;;;;11.00;7.00;;;;;21.04;49.47;100940.41;5041609;28;46289;-78
2023/07/03 04:00:41;;;;;;;;;4.67;4.33;;;;;20.86;49.40;100929.53;5040780;28;45506;-78
2023/07/03 04:03:06;;;;;;;;;8.33;7.00;;;;;20.84;49.49;100930.53;5039630;28;45400;-76
2023/07/03 04:05:32;;;;;;;;;10.33;7.33;;;;;21.27;49.38;100984.81;5039234;28;45311;-75
2023/07/03 04:07:58;;;;;;;;;8.67;8.00;;;;;21.29;49.49;100997.13;5039999;28;47883;-76
2023/07/03 04:10:23;;;;;;;;;8.67;7.33;;;;;20.60;49.42;100874.63;5041125;28;45472;-74
2023/07/03 04:12:49;;;;;;;;;10.00;6.00;;;;;21.00;49.42;100929.03;5039850;28;45498;-75
2023/07/03 04:15:16;;;;;;;;;10.00;8.00;;;;;21.24;49.68;100966.28;5039714;28;45581;-75
2023/07/03 04:17:42;;;;;;;;;8.67;8.00;;;;;21.20;49.76;100978.84;5039091;28;45577;-74
2023/07/03 04:20:10;;;;;;;;;7.67;5.00;;;;;21.31;50.03;100995.28;5038622;28;45547;-74
2023/07/03 04:22:35;;;;;;;;;8.33;6.33;;;;;20.77;49.82;100894.41;5039133;28;45344;-74
2023/07/03 04:25:02;;;;;;;;;6.67;6.67;;;;;21.32;49.94;100998.81;5020775;28;45658;-75
2023/07/03 04:27:27;;;;;;;;;9.67;6.67;;;;;21.31;50.30;100989.97;5036880;28;45546;-74
2023/07/03 04:29:53;;;;;;;;;8.00;5.00;;;;;21.29;49.91;100982.97;5038145;28;45281;-75
2023/07/03 04:32:19;;;;;;;;;10.00;6.67;;;;;20.57;50.07;100869.41;5039823;28;45746;-76
2023/07/03 04:34:44;;;;;;;;;6.00;6.00;;;;;21.30;50.24;100996.19;5021723;28;45555;-79
2023/07/03 04:37:10;;;;;;;;;6.33;6.00;;;;;21.06;50.23;100965.19;5039277;28;46073;-79
2023/07/03 04:39:36;;;;;;;;;7.33;6.67;;;;;21.14;50.29;100965.75;5040091;28;45426;-78
2023/07/03 04:42:03;;;;;;;;;6.00;5.67;;;;;21.32;50.31;100981.03;5020655;28;45466;-78
2023/07/03 04:44:29;;;;;;;;;9.00;6.00;;;;;21.36;50.31;100997.78;5037778;28;45427;-76
2023/07/03 04:46:58;;;;;;;;;7.00;5.67;;;;;21.34;50.52;100975.66;5039388;28;45361;-78
2023/07/03 04:49:29;;;;;;;;;4.00;3.33;;;;;20.92;50.52;100909.78;5021743;28;45376;-78
2023/07/03 04:51:55;;;;;;;;;7.33;6.00;;;;;21.00;50.55;100923.69;5040032;28;45300;-79
2023/07/03 04:54:22;;;;;;;;;12.00;9.00;;;;;21.18;50.40;100948.72;5041766;28;45459;-75
2023/07/03 04:56:48;;;;;;;;;9.67;5.00;;;;;21.39;50.43;100989.66;5041885;28;45666;-78
2023/07/03 04:59:15;;;;;;;;;10.67;6.00;;;;;21.41;50.39;100992.31;5041666;28;45348;-79
2023/07/03 05:01:43;;;;;;;;;3.00;3.00;;;;;21.16;50.33;100945.25;5039168;28;45504;-79
2023/07/03 05:04:10;;;;;;;;;10.33;6.67;;;;;20.92;50.77;100907.13;5038483;28;45415;-76
2023/07/03 05:06:36;;;;;;;;;10.67;6.67;;;;;21.17;50.28;100952.34;5038159;28;45283;-79
2023/07/03 05:09:02;;;;;;;;;6.00;6.00;;;;;21.18;50.50;100949.59;5038692;28;45261;-77
2023/07/03 05:11:29;;;;;;;;;5.67;5.67;;;;;21.28;50.60;100967.88;5022136;28;45400;-77
2023/07/03 05:13:55;;;;;;;;;7.00;6.67;;;;;20.79;50.38;100884.56;5038852;28;45500;-75
2023/07/03 05:16:21;;;;;;;;;9.00;6.33;;;;;21.38;50.60;100990.59;5019593;28;47209;-78
2023/07/03 05:18:47;;;;;;;;;9.00;6.00;;;;;20.92;50.53;100899.13;5037539;28;45418;-77
2023/07/03 05:21:13;;;;;;;;;9.00;6.33;;;;;21.39;50.60;100979.00;5020473;28;45252;-79
2023/07/03 05:23:39;;;;;;;;;8.33;6.33;;;;;20.65;50.57;100863.81;5038807;28;45449;-79
2023/07/03 05:26:05;;;;;;;;;7.33;7.00;;;;;21.13;50.44;100946.25;5020816;28;47619;-78
2023/07/03 05:28:34;;;;;;;;;9.67;6.67;;;;;21.43;50.60;101004.63;5039845;28;45501;-76
2023/07/03 05:31:00;;;;;;;;;10.00;8.00;;;;;21.45;50.30;101009.88;5041798;28;45418;-77
2023/07/03 05:33:27;;;;;;;;;7.00;7.00;;;;;21.43;50.52;101001.06;5059013;28;44810;-76
2023/07/03 05:35:54;;;;;;;;;8.00;7.67;;;;;21.33;50.46;100987.22;5056161;28;46577;-76
2023/07/03 05:38:19;;;;;;;;;6.33;4.00;;;;;21.43;50.96;100996.66;5043757;28;45310;-79
2023/07/03 05:40:46;;;;;;;;;12.00;5.33;;;;;21.02;51.09;100931.59;5046983;28;45245;-79
2023/07/03 05:43:13;;;;;;;;;9.33;7.33;;;;;21.11;50.88;100932.09;5046141;28;45482;-80
2023/07/03 05:45:40;;;;;;;;;13.67;7.00;;;;;21.31;50.60;100959.78;5046816;28;45428;-76
2023/07/03 05:48:06;;;;;;;;;8.67;5.33;;;;;21.33;51.21;100981.88;5042892;28;45722;-78
2023/07/03 05:50:32;;;;;;;;;9.00;6.00;;;;;20.99;50.89;100953.88;5041386;28;45561;-77
2023/07/03 05:52:57;;;;;;;;;10.00;6.33;;;;;21.00;50.38;100968.97;5024263;28;45368;-78
2023/07/03 05:55:23;;;;;;;;;4.67;4.33;;;;;20.98;50.10;100948.66;5042267;28;46193;-72
2023/07/03 05:57:49;;;;;;;;;6.00;4.67;;;;;20.75;50.06;100902.44;5022177;28;45439;-74
2023/07/03 06:00:15;;;;;;;;;6.00;6.00;;;;;21.25;48.89;101000.84;5040264;28;45382;-73
2023/07/03 06:02:42;;;;;;;;;8.00;7.00;;;;;21.23;49.11;100985.84;5040927;28;45466;-78
2023/07/03 06:05:09;;;;;;;;;4.00;3.00;;;;;21.01;49.35;100952.03;5040960;28;46271;-79
2023/07/03 06:07:35;;;;;;;;;5.67;5.00;;;;;20.90;48.96;100923.16;5039967;28;45438;-73
2023/07/03 06:10:01;;;;;;;;;6.67;5.33;;;;;21.21;48.95;100959.25;5040284;28;45514;-77
2023/07/03 06:12:29;;;;;;;;;6.67;4.33;;;;;21.24;49.04;100968.94;5023401;28;45645;-79
2023/07/03 06:14:59;;;;;;;;;6.00;5.67;;;;;21.22;49.50;100989.44;5040485;28;45559;-77
2023/07/03 06:17:26;;;;;;;;;9.33;7.00;;;;;21.06;49.93;100984.69;5039754;28;45325;-76
2023/07/03 06:20:32;;;;;;;;;11.00;6.67;;;;;20.54;49.66;100915.56;5041363;28;45513;-76
2023/07/03 06:22:58;;;;;;;;;9.00;6.00;;;;;20.65;49.98;100941.84;5022747;28;45492;-79
2023/07/03 06:25:23;;;;;;;;;6.00;5.00;;;;;20.83;49.68;100945.59;5041587;28;45359;-78
2023/07/03 06:27:49;;;;;;;;;6.67;6.00;;;;;20.77;49.59;100902.41;5024964;28;45590;-80
2023/07/03 06:30:15;;;;;;;;;4.33;4.00;;;;;21.12;49.14;100935.66;5044259;28;45415;-80
2023/07/03 06:32:40;;;;;;;;;7.00;6.00;;;;;21.23;49.34;100938.75;5043749;28;45310;-79
2023/07/03 06:35:07;;;;;;;;;6.33;4.33;;;;;21.53;48.80;100958.03;5041976;28;45398;-77
2023/07/03 06:37:43;;;;;;;;;5.33;4.33;;;;;21.67;48.84;100969.94;5018539;28;45689;-80
2023/07/03 06:40:15;;;;;;;;;9.00;5.33;;;;;21.78;49.00;101005.00;5030955;28;45435;-79
2023/07/03 06:42:43;;;;;;;;;9.33;6.67;;;;;21.77;48.78;100996.16;5039451;28;45362;-80
2023/07/03 06:45:10;;;;;;;;;7.00;6.00;;;;;21.70;48.52;100988.47;5041632;28;46751;-81
2023/07/03 06:47:35;;;;;;;;;8.00;4.33;;;;;21.50;48.62;100952.84;5040952;28;45658;-80
2023/07/03 06:50:01;;;;;;;;;3.33;3.33;;;;;21.81;48.41;100988.91;5039625;28;45383;-75
2023/07/03 06:52:27;;;;;;;;;6.33;6.33;;;;;21.89;48.01;100997.44;5041468;28;45369;-81
2023/07/03 06:54:54;;;;;;;;;7.67;6.33;;;;;22.03;47.61;100986.22;5023252;28;47624;-79
2023/07/03 06:57:20;;;;;;;;;7.00;5.00;;;;;22.15;47.31;100992.84;5041947;28;45435;-79
2023/07/03 06:59:45;;;;;;;;;5.33;4.33;;;;;21.92;47.02;100964.47;5040318;28;45396;-80
2023/07/03 07:02:11;;;;;;;;;4.67;4.33;;;;;21.58;46.57;100876.09;5040511;28;45340;-79
2023/07/03 07:04:37;;;;;;;;;8.00;4.67;;;;;21.78;46.41;100904.59;5021809;28;45611;-78
2023/07/03 07:07:03;;;;;;;;;10.00;5.00;;;;;22.27;46.63;100968.34;5039474;28;45457;-76
2023/07/03 07:09:28;;;;;;;;;6.67;5.00;;;;;22.44;46.63;101005.81;5040526;28;45361;-77
2023/07/03 07:11:54;;;;;;;;;6.67;5.00;;;;;22.53;46.41;100995.69;5041300;28;45232;-79
2023/07/03 07:14:20;;;;;;;;;5.00;5.00;;;;;22.36;46.09;100967.94;5041173;28;45494;-76
2023/07/03 07:20:12;;;;;;;;;10.00;6.33;;;;;21.83;46.33;100869.75;5023447;28;45487;-77
2023/07/03 07:22:37;;;;;;;;;6.67;5.00;;;;;22.07;46.39;100910.50;5022819;28;45651;-76
2023/07/03 07:25:03;;;;;;;;;7.00;5.00;;;;;22.60;47.01;101005.19;5040288;28;46514;-77
2023/07/03 07:27:29;;;;;;;;;4.67;4.67;;;;;22.48;46.92;101003.91;5033511;28;45339;-76
2023/07/03 07:29:55;;;;;;;;;5.67;3.00;;;;;22.39;46.65;101005.16;5034615;28;45445;-77
2023/07/03 07:32:24;;;;;;;;;6.33;4.33;;;;;22.53;46.75;101001.03;5022280;28;45454;-77
2023/07/03 07:34:50;;;;;;;;;1.67;1.67;;;;;22.42;46.65;100996.16;5038848;28;45546;-77
2023/07/03 07:37:17;;;;;;;;;6.67;5.00;;;;;22.50;46.89;101001.19;5037868;28;45561;-76
2023/07/03 07:39:43;;;;;;;;;3.67;3.67;;;;;22.45;46.76;100982.69;5040205;28;45531;-75
2023/07/03 07:42:09;;;;;;;;;6.67;5.00;;;;;22.30;46.69;100946.84;5015890;28;45592;-81
2023/07/03 07:44:38;;;;;;;;;6.33;4.33;;;;;22.52;46.71;100997.50;5038805;28;46536;-74
2023/07/03 07:47:04;;;;;;;;;6.00;6.00;;;;;22.62;46.22;101003.31;5038952;28;45377;-78
2023/07/03 07:49:29;;;;;;;;;3.67;3.67;;;;;22.54;46.77;101016.09;5037253;28;45341;-76
2023/07/03 07:51:57;;;;;;;;;8.00;4.33;;;;;22.16;46.52;100951.88;5021479;28;45447;-77
2023/07/03 07:54:22;;;;;;;;;5.00;4.67;;;;;22.46;46.88;101018.25;5038894;28;45540;-76
2023/07/03 07:56:51;;;;;;;;;7.67;5.00;;;;;22.19;46.76;100965.13;5039472;28;45446;-77
2023/07/03 07:59:17;;;;;;;;;6.00;5.67;;;;;22.41;47.01;100984.63;5039984;28;45219;-75
2023/07/03 08:01:43;;;;;;;;;4.67;4.00;;;;;22.61;46.63;101005.13;5038879;28;45272;-76
2023/07/03 08:04:09;;;;;;;;;3.67;3.00;;;;;22.69;46.46;101019.94;5040353;28;46212;-74
2023/07/03 08:06:34;;;;;;;;;4.00;3.00;;;;;22.02;46.63;100936.50;5040787;28;45454;-75
2023/07/03 08:09:00;;;;;;;;;5.00;3.00;;;;;22.51;46.66;100979.75;5040980;28;45325;-76
2023/07/03 08:11:28;;;;;;;;;6.33;3.00;;;;;22.24;46.37;100928.47;5039054;28;45788;-75
2023/07/03 08:13:54;;;;;;;;;4.00;4.00;;;;;21.86;46.78;100860.75;5020333;28;48028;-77
2023/07/03 08:16:19;;;;;;;;;5.67;4.33;;;;;22.45;46.42;100950.69;5020767;28;45459;-80
2023/07/03 08:18:45;;;;;;;;;5.67;5.00;;;;;22.18;46.34;100910.88;5040657;28;45348;-79
2023/07/03 08:21:12;;;;;;;;;7.00;4.33;;;;;22.48;46.21;100947.84;5043774;28;44738;-77
2023/07/03 08:23:38;;;;;;;;;4.33;4.33;;;;;22.88;45.83;101009.31;5039669;28;45334;-75
2023/07/03 08:26:04;;;;;;;;;6.67;6.33;;;;;22.91;45.92;101020.69;5039204;28;45321;-75
2023/07/03 08:28:29;;;;;;;;;7.00;6.33;;;;;22.65;46.11;100968.47;5038585;28;45431;-75
2023/07/03 08:30:57;;;;;;;;;7.33;5.33;;;;;23.02;45.89;101009.56;5040953;28;45764;-75
2023/07/03 08:33:23;;;;;;;;;5.00;4.00;;;;;22.48;45.18;100925.66;5039632;28;45529;-75
2023/07/03 08:35:50;;;;;;;;;7.00;5.00;;;;;22.35;44.96;100896.84;5039583;28;45555;-75
2023/07/03 08:38:16;;;;;;;;;7.00;5.00;;;;;23.18;44.28;101002.59;5039868;28;45303;-75
2023/07/03 08:40:42;;;;;;;;;4.67;4.33;;;;;23.22;44.69;100993.47;5039060;28;45396;-75
2023/07/03 08:43:17;;;;;;;;;7.33;5.33;;;;;23.31;43.60;100997.53;5039145;28;45531;-75
2023/07/03 08:45:46;;;;;;;;;4.33;3.33;;;;;23.53;43.08;101020.56;5038875;28;45297;-76
2023/07/03 08:48:23;;;;;;;;;7.33;6.33;;;;;23.32;43.12;100950.28;5024237;28;45521;-77
2023/07/03 08:50:55;;;;;;;;;5.00;5.00;;;;;22.93;42.91;100882.63;5045140;28;45312;-77
2023/07/03 08:53:28;;;;;;;;;5.67;5.00;;;;;22.75;42.94;100857.63;5052861;28;46598;-77
2023/07/03 08:56:16;;;;;;;;;5.33;5.33;;;;;23.68;43.23;101015.38;5045630;28;44675;-74
2023/07/03 08:58:43;;;;;;;;;8.00;5.00;;;;;23.46;43.33;100994.13;5044151;28;45353;-76
2023/07/03 09:01:39;;;;;;;;;6.33;5.33;;;;;23.56;43.73;101012.41;5033851;28;45507;-76
2023/07/03 09:04:28;;;;;;;;;4.67;4.00;;;;;23.50;44.70;101016.25;5038427;28;46323;-75
2023/07/03 09:07:16;;;;;;;;;5.00;5.00;;;;;23.43;44.27;101009.44;5038853;28;45537;-73
2023/07/03 09:09:55;;;;;;;;;6.00;5.33;;;;;23.40;43.91;101022.97;5040453;28;45485;-75
2023/07/03 09:12:28;;;;;;;;;5.00;4.00;;;;;23.33;45.18;101030.41;5041412;28;45355;-73
2023/07/03 09:15:32;;;;;;;;;4.67;4.00;;;;;23.24;44.91;101017.47;5046230;28;45482;-73
2023/07/03 09:18:01;;;;;;;;;8.33;4.00;;;;;23.16;44.93;101014.25;5042743;28;46180;-74
2023/07/03 09:20:29;;;;;;;;;8.33;6.67;;;;;22.39;45.26;100876.22;5046859;28;45588;-74
2023/07/03 09:23:20;;;;;;;;;8.33;5.67;;;;;23.28;45.21;101035.09;5045751;28;45358;-73
2023/07/03 09:26:09;;;;;;;;;5.67;5.00;;;;;23.37;45.12;101028.44;5013825;28;45623;-74
2023/07/03 09:28:49;;;;;;;;;8.00;5.00;;;;;23.43;45.11;101010.31;5046763;28;45352;-77
2023/07/03 09:31:17;;;;;;;;;6.33;5.00;;;;;23.64;44.67;101023.59;5029793;28;45361;-73
2023/07/03 09:33:43;;;;;;;;;6.00;6.00;;;;;23.77;45.34;101023.91;5046087;28;45304;-72
2023/07/03 09:36:30;;;;;;;;;5.67;5.67;;;;;24.08;43.59;101012.56;5045861;28;46601;-70
2023/07/03 09:38:57;;;;;;;;;9.33;6.00;;;;;24.15;43.77;101019.31;5048024;28;45466;-72
2023/07/03 09:41:34;;;;;;;;;8.33;6.33;;;;;24.33;43.29;101018.41;5048094;28;45485;-73
2023/07/03 09:44:06;;;;;;;;;11.00;6.67;;;;;24.06;42.49;100948.44;5045351;28;45931;-74
2023/07/03 09:46:32;;;;;;;;;10.00;6.75;;;;;24.52;42.40;100993.41;5045286;28;46245;-74
2023/07/03 09:49:01;;;;;;;;;7.33;5.00;;;;;24.71;42.33;101014.72;5027167;28;45474;-78
2023/07/03 09:51:29;;;;;;;;;8.67;5.33;;;;;24.23;42.87;100936.00;5027225;28;45529;-77
2023/07/03 09:53:59;;;;;;;;;4.67;4.67;;;;;24.13;42.63;100923.09;5047291;28;45332;-73
2023/07/03 09:56:30;;;;;;;;;6.00;5.33;;;;;24.70;41.94;101016.53;5026808;28;46685;-73
2023/07/03 09:59:00;;;;;;;;;5.33;5.00;;;;;24.65;41.69;101018.56;5044609;28;45371;-76
2023/07/03 10:01:32;;;;;;;;;6.67;6.00;;;;;24.70;41.73;101013.88;5046472;28;45733;-78
2023/07/03 10:04:22;;;;;;;;;6.50;4.00;;;;;24.84;41.90;101009.56;5045223;28;45351;-77
2023/07/03 10:07:07;;;;;;;;;6.00;5.00;;;;;24.80;41.80;100979.41;5028142;28;48001;-73
2023/07/03 10:09:41;;;;;;;;;6.33;6.00;;;;;24.96;41.85;101015.16;5044179;28;45404;-73
2023/07/03 10:12:30;;;;;;;;;6.25;4.00;;;;;24.99;41.31;101024.84;5045622;28;45346;-75
2023/07/03 10:15:13;;;;;;;;;5.00;5.00;;;;;24.93;41.32;101031.38;5027996;28;45594;-76
2023/07/03 10:18:18;;;;;;;;;8.00;5.00;;;;;24.89;41.70;101020.91;5026262;28;47003;-77
2023/07/03 10:20:48;;;;;;;;;5.50;4.75;;;;;24.86;41.39;101011.22;5041632;28;45305;-76
2023/07/03 10:23:35;;;;;;;;;7.25;4.25;;;;;24.53;41.27;100963.84;5046628;28;45354;-74
2023/07/03 10:26:30;;;;;;;;;8.25;6.25;;;;;24.87;41.43;101034.41;5042459;28;45498;-76
2023/07/03 10:29:19;;;;;;;;;7.00;6.33;;;;;24.63;41.39;100995.50;5019285;28;47245;-74
2023/07/03 10:31:56;;;;;;;;;8.75;5.75;;;;;24.27;41.34;100941.09;5043284;28;45343;-74
2023/07/03 10:34:59;;;;;;;;;6.25;6.25;;;;;24.84;41.21;101031.88;5025233;28;45341;-77
2023/07/03 10:37:43;;;;;;;;;6.00;5.50;;;;;24.81;41.09;101031.19;5024983;28;45321;-74
2023/07/03 10:40:20;;;;;;;;;6.00;5.25;;;;;24.80;41.52;101000.84;5022834;28;47840;-75
2023/07/03 10:42:59;;;;;;;;;4.25;4.25;;;;;24.90;41.10;101019.97;5022726;28;45439;-72
2023/07/03 10:45:29;;;;;;;;;5.75;5.25;;;;;24.32;41.74;100936.38;5022601;28;45446;-75
2023/07/03 10:48:10;;;;;;;;;5.00;4.25;;;;;24.36;41.81;100953.13;5040776;28;45393;-78
2023/07/03 10:51:19;;;;;;;;;7.75;5.25;;;;;24.49;41.12;100964.13;5022943;28;47970;-76
2023/07/03 10:54:00;;;;;;;;;6.00;4.50;;;;;24.80;40.71;101014.25;5041326;28;45450;-74
2023/07/03 10:56:44;;;;;;;;;4.50;4.50;;;;;24.93;40.71;101022.47;5024394;28;44802;-75
2023/07/03 10:59:35;;;;;;;;;8.50;4.50;;;;;24.97;39.17;101022.22;5025991;28;45677;-75
2023/07/03 11:02:57;;;;;;;;;8.50;6.25;;;;;24.57;39.03;100936.94;5041692;28;46100;-78
2023/07/03 11:05:30;;;;;;;;;5.00;4.50;;;;;25.10;38.48;101017.06;4984772;28;45424;-74
2023/07/03 11:08:17;;;;;;;;;6.00;5.00;;;;;25.21;38.94;101008.50;4967884;28;45509;-71
2023/07/03 11:11:13;;;;;;;;;8.00;7.00;;;;;24.91;38.90;100952.88;5010492;28;45398;-73
2023/07/03 11:13:49;;;;;;;;;6.00;5.00;;;;;25.41;38.41;101009.19;5039307;28;45289;-74
2023/07/03 11:16:16;;;;;;;;;5.50;5.50;;;;;25.52;38.64;101015.69;5024679;28;45394;-69
2023/07/03 11:19:33;;;;;;;;;6.00;6.00;;;;;25.59;37.54;101010.84;5042428;28;45406;-73
2023/07/03 11:22:17;;;;;;;;;4.75;4.75;;;;;25.43;35.47;100938.44;5001479;28;45475;-74
2023/07/03 11:25:11;;;;;;;;;5.50;4.25;;;;;25.73;34.67;101000.19;5041000;28;45640;-76
2023/07/03 11:28:30;;;;;;;;;6.00;4.50;;;;;25.66;35.00;100968.47;5039765;28;45430;-70
2023/07/03 11:30:59;;;;;;;;;5.50;5.00;;;;;25.75;34.68;100994.75;4958746;28;45330;-72
2023/07/03 11:33:25;;;;;;;;;5.25;4.50;;;;;25.29;34.72;100914.22;5026983;28;45394;-70
2023/07/03 11:35:56;;;;;;;;;4.50;4.00;;;;;25.95;34.35;101001.66;5041182;28;45529;-72
2023/07/03 11:38:22;;;;;;;;;4.25;4.25;;;;;26.03;33.94;101004.78;5042256;28;45196;-72
2023/07/03 11:40:54;;;;;;;;;5.00;4.00;;;;;26.12;32.51;101003.38;5043383;28;45364;-74
2023/07/03 11:43:29;;;;;;;;;4.00;4.00;;;;;26.16;33.01;100997.72;5042557;28;45339;-69